createdAt,value
2018-08-03T00:00:03.150Z,23.09
2018-08-03T00:02:31.687Z,22.85
2018-08-03T00:05:00.160Z,23.00
2018-08-03T00:07:28.798Z,22.97
2018-08-03T00:09:57.520Z,22.92
2018-08-03T00:12:25.931Z,22.80
2018-08-03T00:14:54.344Z,23.19
2018-08-03T00:17:22.866Z,22.85
2018-08-03T00:19:51.246Z,22.76
2018-08-03T00:22:19.747Z,22.77
2018-08-03T00:24:48.348Z,22.93
2018-08-03T00:27:16.798Z,23.05
2018-08-03T00:29:45.247Z,22.50
2018-08-03T00:32:13.933Z,22.62
2018-08-03T00:34:42.403Z,22.27
2018-08-03T00:37:10.803Z,22.52
2018-08-03T00:39:39.231Z,22.67
2018-08-03T00:42:07.674Z,22.46
2018-08-03T00:44:36.084Z,22.68
2018-08-03T00:47:04.611Z,22.53
2018-08-03T00:49:33.079Z,22.12
2018-08-03T00:52:01.584Z,22.00
2018-08-03T00:54:30.123Z,22.12
2018-08-03T00:56:58.489Z,22.24
2018-08-03T00:59:26.933Z,22.42
2018-08-03T01:01:55.515Z,22.53
2018-08-03T01:04:23.915Z,22.31
2018-08-03T01:06:52.353Z,22.21
2018-08-03T01:09:20.763Z,22.34
2018-08-03T01:11:49.356Z,22.41
2018-08-03T01:14:17.854Z,22.29
2018-08-03T01:16:46.674Z,22.22
2018-08-03T01:19:15.657Z,22.17
2018-08-03T01:21:45.235Z,22.05
2018-08-03T01:24:13.771Z,22.17
2018-08-03T01:26:42.307Z,22.06
2018-08-03T01:29:10.706Z,22.19
2018-08-03T01:31:39.241Z,21.94
2018-08-03T01:34:07.690Z,21.95
2018-08-03T01:36:36.074Z,22.08
2018-08-03T01:39:06.695Z,21.68
2018-08-03T01:41:51.771Z,21.74
2018-08-03T01:44:20.371Z,21.80
2018-08-03T01:46:48.790Z,21.82
2018-08-03T01:49:17.263Z,21.77
2018-08-03T01:51:45.787Z,21.83
2018-08-03T01:54:14.199Z,21.68
2018-08-03T01:56:42.599Z,21.80
2018-08-03T01:59:11.149Z,21.70
2018-08-03T02:01:39.563Z,21.57
2018-08-03T02:04:08.081Z,21.59
2018-08-03T02:06:36.715Z,21.60
2018-08-03T02:09:07.692Z,21.85
2018-08-03T02:11:36.251Z,21.66
2018-08-03T02:14:04.956Z,21.82
2018-08-03T02:16:33.363Z,21.74
2018-08-03T02:19:02.168Z,22.02
2018-08-03T02:21:31.039Z,21.56
2018-08-03T02:23:59.495Z,22.11
2018-08-03T02:26:27.967Z,22.03
2018-08-03T02:28:56.375Z,21.65
2018-08-03T02:31:24.879Z,21.83
2018-08-03T02:33:53.632Z,21.54
2018-08-03T02:36:22.188Z,22.02
2018-08-03T02:38:50.589Z,21.65
2018-08-03T02:41:19.083Z,21.83
2018-08-03T02:43:47.547Z,21.78
2018-08-03T02:46:15.936Z,21.69
2018-08-03T02:48:44.360Z,21.70
2018-08-03T02:51:12.787Z,21.62
2018-08-03T02:53:41.303Z,21.56
2018-08-03T02:56:09.875Z,21.57
2018-08-03T02:58:38.251Z,21.40
2018-08-03T03:01:06.992Z,21.17
2018-08-03T03:03:35.663Z,21.39
2018-08-03T03:06:04.112Z,20.82
2018-08-03T03:08:32.579Z,21.06
2018-08-03T03:11:01.352Z,21.11
2018-08-03T03:13:29.831Z,21.03
2018-08-03T03:15:58.267Z,21.10
2018-08-03T03:18:26.725Z,21.04
2018-08-03T03:20:55.408Z,21.08
2018-08-03T03:23:24.111Z,21.09
2018-08-03T03:25:52.731Z,21.15
2018-08-03T03:28:21.159Z,21.17
2018-08-03T03:30:49.571Z,21.34
2018-08-03T03:33:18.052Z,20.84
2018-08-03T03:35:46.503Z,20.38
2018-08-03T03:38:14.949Z,20.50
2018-08-03T03:40:43.542Z,20.73
2018-08-03T03:43:12.203Z,20.76
2018-08-03T03:45:40.605Z,20.89
2018-08-03T03:48:09.076Z,20.71
2018-08-03T03:50:37.503Z,20.80
2018-08-03T03:53:05.988Z,20.89
2018-08-03T03:55:34.543Z,20.82
2018-08-03T03:58:02.975Z,21.04
2018-08-03T04:00:31.331Z,21.06
2018-08-03T04:02:59.862Z,20.91
2018-08-03T04:05:28.380Z,20.94
2018-08-03T04:07:56.775Z,20.68
2018-08-03T04:10:25.207Z,20.35
2018-08-03T04:12:53.594Z,20.44
2018-08-03T04:15:22.015Z,20.68
2018-08-03T04:17:50.553Z,20.86
2018-08-03T04:20:19.020Z,20.79
2018-08-03T04:22:47.495Z,20.80
2018-08-03T04:25:16.184Z,20.66
2018-08-03T04:27:44.578Z,21.14
2018-08-03T04:30:13.021Z,20.95
2018-08-03T04:32:41.506Z,20.87
2018-08-03T04:35:09.996Z,20.96
2018-08-03T04:37:38.508Z,20.95
2018-08-03T04:40:07.002Z,21.03
2018-08-03T04:42:35.481Z,21.16
2018-08-03T04:45:03.880Z,21.19
2018-08-03T04:47:32.395Z,21.37
2018-08-03T04:50:01.051Z,21.21
2018-08-03T04:52:29.831Z,21.21
2018-08-03T04:54:58.301Z,21.48
2018-08-03T04:57:26.843Z,22.12
2018-08-03T04:59:55.323Z,22.79
2018-08-03T05:02:24.103Z,23.24
2018-08-03T05:04:52.536Z,23.51
2018-08-03T05:07:20.991Z,23.88
2018-08-03T05:09:49.447Z,24.02
2018-08-03T05:12:17.883Z,24.33
2018-08-03T05:14:46.319Z,24.34
2018-08-03T05:17:14.980Z,24.53
2018-08-03T05:19:43.384Z,24.82
2018-08-03T05:22:11.771Z,24.89
2018-08-03T05:24:40.231Z,25.06
2018-08-03T05:27:08.628Z,25.17
2018-08-03T05:29:37.039Z,25.38
2018-08-03T05:32:05.664Z,25.51
2018-08-03T05:34:34.275Z,25.45
2018-08-03T05:37:03.088Z,25.59
2018-08-03T05:39:31.864Z,25.50
2018-08-03T05:42:00.340Z,25.58
2018-08-03T05:44:28.735Z,25.39
2018-08-03T05:46:57.347Z,25.50
2018-08-03T05:49:25.811Z,25.82
2018-08-03T05:51:54.324Z,25.94
2018-08-03T05:54:22.978Z,26.01
2018-08-03T05:56:51.409Z,25.89
2018-08-03T05:59:19.886Z,25.87
2018-08-03T06:01:48.516Z,26.14
2018-08-03T06:04:16.995Z,26.10
2018-08-03T06:06:45.487Z,26.54
2018-08-03T06:09:14.047Z,26.80
2018-08-03T06:11:42.466Z,26.98
2018-08-03T06:14:10.988Z,26.88
2018-08-03T06:16:39.447Z,26.94
2018-08-03T06:19:07.852Z,27.06
2018-08-03T06:21:36.350Z,27.06
2018-08-03T06:24:04.858Z,27.05
2018-08-03T06:26:33.263Z,27.12
2018-08-03T06:29:01.835Z,27.35
2018-08-03T06:31:30.331Z,27.43
2018-08-03T06:33:58.823Z,27.32
2018-08-03T06:36:27.311Z,27.31
2018-08-03T06:38:55.888Z,27.39
2018-08-03T06:41:24.383Z,27.22
2018-08-03T06:43:52.919Z,27.23
2018-08-03T06:46:21.690Z,27.56
2018-08-03T06:48:50.265Z,27.38
2018-08-03T06:51:18.673Z,27.26
2018-08-03T06:53:47.438Z,27.47
2018-08-03T06:56:15.863Z,27.52
2018-08-03T06:58:44.390Z,27.46
2018-08-03T07:01:13.026Z,27.65
2018-08-03T07:03:41.431Z,27.79
2018-08-03T07:06:09.964Z,27.87
2018-08-03T07:08:38.500Z,27.97
2018-08-03T07:11:07.187Z,28.08
2018-08-03T07:13:35.635Z,28.43
2018-08-03T07:16:04.106Z,28.37
2018-08-03T07:18:32.617Z,28.18
2018-08-03T07:21:01.011Z,27.96
2018-08-03T07:23:29.679Z,28.46
2018-08-03T07:25:58.116Z,28.38
2018-08-03T07:28:26.607Z,28.61
2018-08-03T07:30:55.195Z,29.30
2018-08-03T07:33:23.682Z,28.93
2018-08-03T07:35:52.227Z,29.13
2018-08-03T07:38:20.635Z,29.51
2018-08-03T07:40:49.044Z,29.67
2018-08-03T07:43:17.597Z,29.27
2018-08-03T07:45:45.984Z,29.58
2018-08-03T07:48:14.439Z,29.79
2018-08-03T07:50:42.811Z,29.86
2018-08-03T07:53:11.404Z,30.12
2018-08-03T07:55:39.911Z,29.94
2018-08-03T07:58:08.402Z,30.01
2018-08-03T08:00:36.843Z,30.13
2018-08-03T08:03:05.339Z,30.33
2018-08-03T08:05:33.879Z,29.97
2018-08-03T08:08:03.263Z,30.16
2018-08-03T08:10:33.139Z,30.22
2018-08-03T08:13:01.657Z,30.28
2018-08-03T08:15:30.700Z,30.38
2018-08-03T08:17:59.985Z,30.49
2018-08-03T08:20:29.419Z,30.59
2018-08-03T08:22:57.995Z,30.51
2018-08-03T08:25:26.479Z,30.40
2018-08-03T08:27:54.943Z,30.74
2018-08-03T08:30:23.519Z,30.96
2018-08-03T08:32:51.955Z,30.74
2018-08-03T08:35:20.475Z,30.87
2018-08-03T08:37:48.895Z,31.12
2018-08-03T08:40:17.255Z,31.22
2018-08-03T08:42:45.740Z,30.90
2018-08-03T08:45:14.192Z,30.83
2018-08-03T08:47:42.621Z,31.40
2018-08-03T08:50:11.236Z,31.15
2018-08-03T08:52:39.759Z,31.23
2018-08-03T08:55:08.163Z,31.09
2018-08-03T08:57:36.547Z,31.56
2018-08-03T09:00:05.319Z,31.54
2018-08-03T09:02:33.771Z,31.85
2018-08-03T09:05:02.285Z,31.82
2018-08-03T09:07:30.906Z,32.23
2018-08-03T09:09:59.239Z,32.19
2018-08-03T09:12:27.644Z,32.10
2018-08-03T09:14:56.225Z,32.09
2018-08-03T09:17:24.627Z,31.88
2018-08-03T09:19:53.023Z,32.03
2018-08-03T09:22:21.412Z,32.10
2018-08-03T09:24:49.907Z,31.89
2018-08-03T09:27:18.316Z,32.28
2018-08-03T09:29:47.179Z,32.19
2018-08-03T09:32:15.660Z,32.24
2018-08-03T09:34:44.145Z,32.21
2018-08-03T09:37:12.669Z,32.39
2018-08-03T09:39:41.071Z,32.30
2018-08-03T09:42:09.479Z,32.78
2018-08-03T09:44:37.994Z,32.91
2018-08-03T09:47:06.476Z,33.06
2018-08-03T09:49:34.999Z,32.56
2018-08-03T09:52:03.399Z,32.94
2018-08-03T09:54:31.916Z,32.89
2018-08-03T09:57:00.335Z,32.96
2018-08-03T09:59:28.846Z,33.04
2018-08-03T10:01:57.383Z,32.83
2018-08-03T10:04:25.832Z,32.97
2018-08-03T10:06:54.332Z,33.03
2018-08-03T10:09:22.811Z,33.20
2018-08-03T10:11:51.325Z,33.47
2018-08-03T10:14:19.971Z,33.30
2018-08-03T10:16:48.411Z,33.28
2018-08-03T10:19:16.857Z,33.99
2018-08-03T10:21:45.552Z,33.42
2018-08-03T10:24:13.959Z,33.44
2018-08-03T10:26:42.378Z,33.19
2018-08-03T10:29:10.894Z,33.27
2018-08-03T10:31:39.336Z,33.65
2018-08-03T10:34:07.803Z,33.85
2018-08-03T10:36:36.418Z,33.70
2018-08-03T10:39:07.628Z,33.69
2018-08-03T10:41:36.140Z,33.55
2018-08-03T10:44:04.695Z,33.49
2018-08-03T10:46:33.196Z,33.30
2018-08-03T10:49:02.270Z,33.67
2018-08-03T10:51:30.676Z,34.09
2018-08-03T10:53:59.036Z,33.78
2018-08-03T10:56:27.968Z,34.27
2018-08-03T10:58:56.355Z,33.95
2018-08-03T11:01:24.930Z,34.07
2018-08-03T11:03:53.387Z,33.85
2018-08-03T11:06:21.830Z,33.85
2018-08-03T11:08:50.334Z,34.18
2018-08-03T11:11:18.815Z,34.14
2018-08-03T11:13:47.262Z,34.35
2018-08-03T11:16:15.607Z,34.10
2018-08-03T11:18:44.187Z,34.16
2018-08-03T11:21:12.642Z,34.27
2018-08-03T11:23:41.152Z,34.42
2018-08-03T11:26:09.555Z,34.18
2018-08-03T11:28:38.012Z,34.55
2018-08-03T11:31:06.431Z,34.43
2018-08-03T11:33:34.909Z,34.49
2018-08-03T11:36:03.428Z,35.02
2018-08-03T11:38:31.863Z,34.73
2018-08-03T11:41:00.660Z,34.78
2018-08-03T11:43:29.831Z,34.57
2018-08-03T11:45:58.275Z,34.76
2018-08-03T11:48:26.696Z,34.41
2018-08-03T11:50:55.194Z,34.53
2018-08-03T11:53:23.660Z,34.41
2018-08-03T11:55:52.324Z,34.48
2018-08-03T11:58:20.745Z,34.32
2018-08-03T12:00:49.191Z,34.78
2018-08-03T12:03:17.799Z,35.06
2018-08-03T12:05:46.233Z,35.01
2018-08-03T12:08:14.699Z,35.15
2018-08-03T12:10:43.441Z,35.13
2018-08-03T12:13:11.836Z,35.23
2018-08-03T12:15:40.280Z,34.91
2018-08-03T12:18:10.571Z,35.35
2018-08-03T12:20:39.022Z,35.17
2018-08-03T12:23:07.415Z,35.28
2018-08-03T12:25:36.011Z,35.50
2018-08-03T12:28:04.403Z,35.72
2018-08-03T12:30:32.783Z,35.11
2018-08-03T12:33:01.576Z,35.50
2018-08-03T12:35:30.277Z,35.60
2018-08-03T12:37:58.951Z,35.49
2018-08-03T12:40:27.716Z,35.45
2018-08-03T12:42:56.182Z,35.32
2018-08-03T12:45:33.833Z,35.61
2018-08-03T12:47:53.363Z,35.58
2018-08-03T12:50:21.769Z,35.57
2018-08-03T12:52:50.188Z,35.03
2018-08-03T12:55:18.859Z,35.07
2018-08-03T12:57:47.459Z,35.36
2018-08-03T13:00:15.884Z,35.39
2018-08-03T13:02:44.430Z,35.40
2018-08-03T13:05:12.795Z,35.10
2018-08-03T13:07:41.225Z,34.95
2018-08-03T13:10:09.944Z,35.11
2018-08-03T13:12:38.665Z,35.29
2018-08-03T13:15:08.499Z,35.26
2018-08-03T13:17:36.915Z,35.30
2018-08-03T13:20:05.980Z,35.26
2018-08-03T13:22:34.362Z,35.28
2018-08-03T13:25:02.861Z,35.39
2018-08-03T13:27:31.611Z,35.15
2018-08-03T13:30:00.078Z,35.39
2018-08-03T13:32:28.707Z,35.36
2018-08-03T13:34:57.239Z,35.31
2018-08-03T13:37:25.763Z,35.36
2018-08-03T13:39:54.844Z,35.64
2018-08-03T13:42:23.340Z,35.67
2018-08-03T13:44:51.759Z,36.05
2018-08-03T13:47:20.288Z,35.58
2018-08-03T13:49:48.715Z,35.65
2018-08-03T13:52:17.350Z,35.60
2018-08-03T13:54:45.828Z,35.25
2018-08-03T13:57:14.295Z,35.74
2018-08-03T13:59:42.901Z,35.69
2018-08-03T14:02:24.896Z,35.58
2018-08-03T14:04:54.055Z,35.87
2018-08-03T14:07:22.499Z,35.81
2018-08-03T14:09:51.279Z,36.10
2018-08-03T14:12:19.868Z,36.06
2018-08-03T14:14:48.260Z,36.22
2018-08-03T14:17:16.777Z,35.57
2018-08-03T14:19:45.266Z,36.11
2018-08-03T14:22:13.720Z,36.19
2018-08-03T14:24:42.447Z,35.94
2018-08-03T14:27:10.972Z,35.77
2018-08-03T14:29:39.497Z,35.93
2018-08-03T14:32:08.093Z,35.74
2018-08-03T14:34:36.566Z,35.96
2018-08-03T14:37:05.073Z,35.98
2018-08-03T14:39:33.590Z,36.02
2018-08-03T14:42:02.035Z,35.74
2018-08-03T14:44:30.506Z,36.10
2018-08-03T14:46:59.195Z,36.32
2018-08-03T14:49:27.643Z,36.26
2018-08-03T14:51:56.147Z,35.93
2018-08-03T14:54:24.631Z,36.01
2018-08-03T14:56:53.031Z,36.27
2018-08-03T14:59:21.495Z,36.29
2018-08-03T15:01:50.016Z,36.47
2018-08-03T15:04:18.470Z,36.32
2018-08-03T15:06:47.032Z,36.26
2018-08-03T15:09:15.646Z,36.14
2018-08-03T15:11:44.083Z,36.15
2018-08-03T15:14:12.587Z,35.90
2018-08-03T15:16:41.243Z,35.69
2018-08-03T15:19:09.767Z,35.72
2018-08-03T15:21:38.169Z,35.67
2018-08-03T15:24:06.805Z,35.62
2018-08-03T15:26:35.207Z,35.52
2018-08-03T15:29:03.738Z,35.79
2018-08-03T15:31:32.295Z,35.78
2018-08-03T15:34:00.748Z,35.72
2018-08-03T15:36:29.200Z,35.69
2018-08-03T15:38:58.195Z,35.86
2018-08-03T15:41:26.583Z,35.61
2018-08-03T15:43:55.055Z,35.81
2018-08-03T15:46:23.771Z,35.61
2018-08-03T15:48:52.218Z,35.68
2018-08-03T15:51:20.615Z,35.86
2018-08-03T15:53:49.251Z,36.03
2018-08-03T15:56:17.659Z,36.21
2018-08-03T15:58:46.164Z,36.24
2018-08-03T16:01:14.672Z,36.21
2018-08-03T16:03:43.149Z,36.10
2018-08-03T16:06:11.559Z,36.20
2018-08-03T16:08:40.311Z,35.82
2018-08-03T16:11:08.808Z,35.85
2018-08-03T16:13:37.328Z,35.67
2018-08-03T16:16:05.787Z,35.53
2018-08-03T16:18:34.251Z,35.70
2018-08-03T16:21:02.723Z,35.71
2018-08-03T16:23:31.172Z,35.56
2018-08-03T16:25:59.591Z,35.53
2018-08-03T16:28:28.011Z,35.59
2018-08-03T16:30:56.517Z,35.48
2018-08-03T16:33:24.956Z,35.40
2018-08-03T16:35:53.435Z,35.37
2018-08-03T16:38:22.024Z,35.41
2018-08-03T16:40:50.457Z,35.46
2018-08-03T16:43:18.862Z,35.79
2018-08-03T16:45:47.292Z,35.76
2018-08-03T16:48:15.879Z,35.65
2018-08-03T16:50:44.284Z,35.70
2018-08-03T16:53:13.003Z,35.59
2018-08-03T16:55:41.555Z,35.45
2018-08-03T16:58:09.952Z,35.40
2018-08-03T17:00:38.595Z,35.42
2018-08-03T17:03:07.331Z,35.34
2018-08-03T17:05:35.819Z,35.21
2018-08-03T17:08:04.887Z,35.07
2018-08-03T17:10:33.443Z,35.22
2018-08-03T17:13:01.891Z,35.26
2018-08-03T17:15:30.580Z,35.25
2018-08-03T17:17:59.127Z,35.27
2018-08-03T17:20:27.571Z,35.15
2018-08-03T17:22:55.991Z,34.98
2018-08-03T17:25:24.486Z,35.11
2018-08-03T17:27:52.882Z,34.98
2018-08-03T17:30:21.535Z,34.97
2018-08-03T17:32:49.939Z,34.95
2018-08-03T17:35:18.352Z,34.68
2018-08-03T17:37:47.021Z,34.62
2018-08-03T17:40:15.523Z,34.32
2018-08-03T17:42:43.994Z,34.28
2018-08-03T17:45:12.476Z,34.03
2018-08-03T17:47:40.935Z,33.89
2018-08-03T17:50:09.355Z,33.93
2018-08-03T17:52:37.973Z,33.78
2018-08-03T17:55:06.467Z,33.63
2018-08-03T17:57:34.955Z,33.51
2018-08-03T18:00:03.592Z,33.37
2018-08-03T18:02:32.103Z,33.18
2018-08-03T18:05:00.543Z,33.08
2018-08-03T18:07:29.105Z,32.93
2018-08-03T18:09:57.585Z,32.80
2018-08-03T18:12:25.992Z,32.89
2018-08-03T18:14:54.415Z,32.78
2018-08-03T18:17:22.896Z,32.52
2018-08-03T18:19:51.355Z,32.65
2018-08-03T18:22:19.871Z,32.50
2018-08-03T18:24:48.295Z,32.57
2018-08-03T18:27:16.731Z,32.43
2018-08-03T18:29:45.504Z,32.48
2018-08-03T18:32:13.920Z,32.48
2018-08-03T18:34:42.411Z,32.66
2018-08-03T18:37:10.843Z,32.23
2018-08-03T18:39:39.271Z,32.34
2018-08-03T18:42:07.694Z,32.11
2018-08-03T18:44:36.132Z,32.16
2018-08-03T18:47:04.604Z,32.05
2018-08-03T18:49:33.012Z,32.11
2018-08-03T18:52:01.498Z,31.93
2018-08-03T18:54:30.095Z,31.69
2018-08-03T18:56:58.549Z,31.68
2018-08-03T18:59:27.232Z,31.42
2018-08-03T19:01:55.666Z,31.51
2018-08-03T19:04:24.151Z,31.02
2018-08-03T19:06:52.618Z,31.06
2018-08-03T19:09:21.007Z,31.06
2018-08-03T19:11:49.407Z,30.91
2018-08-03T19:14:17.980Z,30.43
2018-08-03T19:16:46.427Z,30.34
2018-08-03T19:19:14.918Z,30.38
2018-08-03T19:21:43.882Z,30.36
2018-08-03T19:24:12.395Z,30.23
2018-08-03T19:26:40.755Z,30.04
2018-08-03T19:29:09.454Z,29.65
2018-08-03T19:31:37.918Z,29.39
2018-08-03T19:34:06.336Z,29.46
2018-08-03T19:36:35.156Z,29.22
2018-08-03T19:39:03.781Z,29.43
2018-08-03T19:41:32.283Z,29.47
2018-08-03T19:44:00.839Z,29.24
2018-08-03T19:46:29.325Z,29.29
2018-08-03T19:48:57.767Z,29.33
2018-08-03T19:51:26.209Z,28.92
2018-08-03T19:53:54.895Z,29.13
2018-08-03T19:56:23.385Z,29.01
2018-08-03T19:58:52.065Z,28.97
2018-08-03T20:01:20.375Z,28.86
2018-08-03T20:03:49.071Z,28.85
2018-08-03T20:06:17.902Z,28.72
2018-08-03T20:08:46.292Z,28.57
2018-08-03T20:11:14.940Z,28.43
2018-08-03T20:13:43.464Z,28.44
2018-08-03T20:16:11.804Z,28.25
2018-08-03T20:18:40.290Z,28.13
2018-08-03T20:21:09.183Z,28.10
2018-08-03T20:23:37.615Z,28.07
2018-08-03T20:26:06.100Z,28.00
2018-08-03T20:28:34.756Z,27.78
2018-08-03T20:31:03.288Z,27.55
2018-08-03T20:33:31.768Z,27.50
2018-08-03T20:36:00.312Z,27.40
2018-08-03T20:38:28.885Z,27.23
2018-08-03T20:40:57.375Z,26.93
2018-08-03T20:43:26.235Z,26.94
2018-08-03T20:45:54.751Z,26.97
2018-08-03T20:48:23.158Z,26.45
2018-08-03T20:50:51.752Z,26.16
2018-08-03T20:53:20.256Z,26.40
2018-08-03T20:55:48.715Z,26.25
2018-08-03T20:58:17.161Z,26.30
2018-08-03T21:00:45.680Z,26.21
2018-08-03T21:03:14.080Z,25.71
2018-08-03T21:05:42.639Z,25.99
2018-08-03T21:08:11.079Z,25.86
2018-08-03T21:10:39.468Z,25.99
2018-08-03T21:13:07.907Z,25.88
2018-08-03T21:15:36.439Z,25.88
2018-08-03T21:18:05.123Z,25.95
2018-08-03T21:20:33.739Z,25.73
2018-08-03T21:23:02.159Z,25.61
2018-08-03T21:25:30.681Z,25.71
2018-08-03T21:27:59.427Z,25.90
2018-08-03T21:30:27.851Z,25.80
2018-08-03T21:32:56.303Z,25.52
2018-08-03T21:35:24.743Z,25.47
2018-08-03T21:37:53.135Z,25.60
2018-08-03T21:40:21.635Z,25.28
2018-08-03T21:42:50.116Z,25.17
2018-08-03T21:45:18.591Z,25.36
2018-08-03T21:47:46.975Z,25.21
2018-08-03T21:50:15.720Z,25.17
2018-08-03T21:52:44.190Z,25.08
2018-08-03T21:55:12.679Z,25.06
2018-08-03T21:57:41.107Z,25.34
2018-08-03T22:00:13.035Z,24.87
2018-08-03T22:02:41.563Z,24.97
2018-08-03T22:05:09.992Z,24.90
2018-08-03T22:07:38.560Z,24.95
2018-08-03T22:10:07.291Z,24.79
2018-08-03T22:12:35.751Z,24.71
2018-08-03T22:15:04.287Z,24.65
2018-08-03T22:17:32.992Z,24.65
2018-08-03T22:20:01.457Z,24.43
2018-08-03T22:22:29.893Z,24.29
2018-08-03T22:24:58.387Z,24.16
2018-08-03T22:27:26.901Z,24.27
2018-08-03T22:29:55.411Z,24.11
2018-08-03T22:32:23.863Z,23.48
2018-08-03T22:34:52.265Z,23.82
2018-08-03T22:37:20.808Z,23.76
2018-08-03T22:39:49.643Z,23.70
2018-08-03T22:42:18.103Z,23.45
2018-08-03T22:44:46.583Z,23.38
2018-08-03T22:47:15.135Z,23.35
2018-08-03T22:49:43.691Z,23.51
2018-08-03T22:52:12.154Z,23.63
2018-08-03T22:54:40.575Z,23.53
2018-08-03T22:57:09.031Z,23.44
2018-08-03T22:59:37.407Z,23.22
2018-08-03T23:02:08.012Z,23.44
2018-08-03T23:04:37.381Z,23.56
2018-08-03T23:07:05.815Z,23.48
2018-08-03T23:09:34.443Z,23.45
2018-08-03T23:12:02.902Z,22.96
2018-08-03T23:14:31.323Z,22.78
2018-08-03T23:16:59.876Z,23.15
2018-08-03T23:19:28.567Z,23.01
2018-08-03T23:21:56.951Z,23.00
2018-08-03T23:24:25.495Z,23.01
2018-08-03T23:26:53.934Z,23.07
2018-08-03T23:29:22.332Z,23.29
2018-08-03T23:31:50.782Z,22.80
2018-08-03T23:34:19.243Z,22.14
2018-08-03T23:36:47.714Z,22.54
2018-08-03T23:39:16.363Z,22.53
2018-08-03T23:41:45.055Z,22.27
2018-08-03T23:44:13.543Z,22.56
2018-08-03T23:46:42.190Z,22.47
2018-08-03T23:49:10.603Z,22.65
2018-08-03T23:51:39.839Z,22.86
2018-08-03T23:54:08.275Z,22.79
2018-08-03T23:56:36.720Z,23.23
2018-08-03T23:59:05.367Z,22.86
